createdAt,value
2018-10-06T00:00:16.578Z,20.70
2018-10-06T00:01:16.364Z,20.70
2018-10-06T00:02:16.400Z,20.66
2018-10-06T00:03:16.439Z,20.66
2018-10-06T00:04:16.476Z,20.63
2018-10-06T00:05:16.511Z,20.67
2018-10-06T00:06:16.540Z,20.70
2018-10-06T00:07:16.826Z,20.63
2018-10-06T00:08:16.610Z,20.67
2018-10-06T00:09:16.665Z,20.66
2018-10-06T00:10:16.940Z,20.67
2018-10-06T00:11:16.719Z,20.59
2018-10-06T00:12:16.755Z,20.63
2018-10-06T00:13:17.039Z,20.63
2018-10-06T00:14:16.826Z,20.63
2018-10-06T00:15:16.861Z,20.64
2018-10-06T00:16:17.154Z,20.66
2018-10-06T00:17:16.939Z,20.63
2018-10-06T00:18:16.975Z,20.70
2018-10-06T00:19:17.254Z,20.58
2018-10-06T00:20:17.050Z,20.68
2018-10-06T00:21:17.075Z,20.63
2018-10-06T00:22:17.118Z,20.67
2018-10-06T00:23:17.153Z,20.63
2018-10-06T00:24:17.432Z,20.66
2018-10-06T00:25:17.217Z,20.66
2018-10-06T00:26:17.254Z,20.63
2018-10-06T00:27:17.289Z,20.71
2018-10-06T00:28:17.331Z,20.67
2018-10-06T00:29:17.618Z,20.70
2018-10-06T00:30:17.403Z,20.59
2018-10-06T00:31:17.438Z,20.60
2018-10-06T00:32:17.718Z,20.73
2018-10-06T00:33:17.512Z,20.67
2018-10-06T00:34:17.545Z,20.60
2018-10-06T00:35:17.576Z,20.63
2018-10-06T00:36:17.609Z,20.59
2018-10-06T00:37:17.901Z,20.58
2018-10-06T00:38:17.930Z,20.58
2018-10-06T00:39:17.717Z,20.70
2018-10-06T00:40:17.756Z,20.58
2018-10-06T00:41:17.788Z,20.60
2018-10-06T00:42:17.832Z,20.55
2018-10-06T00:43:17.859Z,20.55
2018-10-06T00:44:17.895Z,20.67
2018-10-06T00:45:17.933Z,20.58
2018-10-06T00:46:17.973Z,20.63
2018-10-06T00:47:18.018Z,20.63
2018-10-06T00:48:18.294Z,20.66
2018-10-06T00:49:18.080Z,20.58
2018-10-06T00:50:18.115Z,20.59
2018-10-06T00:51:18.151Z,20.60
2018-10-06T00:52:18.186Z,20.58
2018-10-06T00:53:18.466Z,20.60
2018-10-06T00:54:18.502Z,20.64
2018-10-06T00:55:18.286Z,20.60
2018-10-06T00:56:18.579Z,20.64
2018-10-06T00:57:18.371Z,20.64
2018-10-06T00:58:18.395Z,20.60
2018-10-06T00:59:18.436Z,20.63
2018-10-06T01:00:18.464Z,20.56
2018-10-06T01:01:18.549Z,20.64
2018-10-06T01:02:18.786Z,20.56
2018-10-06T01:03:18.573Z,20.60
2018-10-06T01:04:18.609Z,20.59
2018-10-06T01:05:18.650Z,20.66
2018-10-06T01:06:18.679Z,20.59
2018-10-06T01:07:18.714Z,20.64
2018-10-06T01:08:18.759Z,20.60
2018-10-06T01:09:19.042Z,20.64
2018-10-06T01:10:18.822Z,20.59
2018-10-06T01:13:05.252Z,20.59
2018-10-06T01:14:05.289Z,20.58
2018-10-06T01:15:05.321Z,20.68
2018-10-06T01:16:05.605Z,20.67
2018-10-06T01:17:05.398Z,20.63
2018-10-06T01:18:05.427Z,20.64
2018-10-06T01:19:05.463Z,20.59
2018-10-06T01:20:05.498Z,20.63
2018-10-06T01:21:05.534Z,20.63
2018-10-06T01:22:05.576Z,20.58
2018-10-06T01:23:05.613Z,20.58
2018-10-06T01:24:05.705Z,20.59
2018-10-06T01:25:05.929Z,20.73
2018-10-06T01:26:05.719Z,20.60
2018-10-06T01:27:05.747Z,20.63
2018-10-06T01:28:05.783Z,20.56
2018-10-06T01:29:06.076Z,20.67
2018-10-06T01:30:05.861Z,20.59
2018-10-06T01:31:05.897Z,20.66
2018-10-06T01:32:05.929Z,20.58
2018-10-06T01:33:05.964Z,20.56
2018-10-06T01:34:05.996Z,20.59
2018-10-06T01:35:06.082Z,20.64
2018-10-06T01:36:06.075Z,20.63
2018-10-06T01:37:06.105Z,20.66
2018-10-06T01:38:06.140Z,20.59
2018-10-06T01:39:06.184Z,20.56
2018-10-06T01:40:06.213Z,20.60
2018-10-06T01:41:06.247Z,20.59
2018-10-06T01:42:06.287Z,20.63
2018-10-06T01:43:06.324Z,20.56
2018-10-06T01:44:06.603Z,20.63
2018-10-06T01:45:06.395Z,20.63
2018-10-06T01:46:06.434Z,20.70
2018-10-06T01:47:06.466Z,20.59
2018-10-06T01:48:06.501Z,20.59
2018-10-06T01:49:06.538Z,20.63
2018-10-06T01:50:06.656Z,20.60
2018-10-06T01:51:06.954Z,20.59
2018-10-06T01:52:06.644Z,20.67
2018-10-06T01:53:06.923Z,20.60
2018-10-06T01:54:06.709Z,20.63
2018-10-06T01:55:06.751Z,20.59
2018-10-06T01:56:07.030Z,20.60
2018-10-06T01:57:06.814Z,20.59
2018-10-06T01:58:06.851Z,20.63
2018-10-06T01:59:07.145Z,20.56
2018-10-06T02:00:06.933Z,20.59
2018-10-06T02:01:06.964Z,20.56
2018-10-06T02:02:06.994Z,20.60
2018-10-06T02:03:07.029Z,20.56
2018-10-06T02:04:07.070Z,20.60
2018-10-06T02:05:07.107Z,20.59
2018-10-06T02:06:07.136Z,20.63
2018-10-06T02:07:07.179Z,20.63
2018-10-06T02:08:07.213Z,20.58
2018-10-06T02:09:07.242Z,20.56
2018-10-06T02:10:07.278Z,20.59
2018-10-06T02:11:07.321Z,20.58
2018-10-06T02:12:07.608Z,20.60
2018-10-06T02:13:07.385Z,20.58
2018-10-06T02:14:07.430Z,20.59
2018-10-06T02:15:07.714Z,20.58
2018-10-06T02:16:07.498Z,20.56
2018-10-06T02:17:07.534Z,20.63
2018-10-06T02:18:07.570Z,20.63
2018-10-06T02:19:07.606Z,20.56
2018-10-06T02:20:07.640Z,20.58
2018-10-06T02:21:07.668Z,20.56
2018-10-06T02:22:07.704Z,20.59
2018-10-06T02:23:07.740Z,20.55
2018-10-06T02:24:07.783Z,20.63
2018-10-06T02:25:08.069Z,20.56
2018-10-06T02:26:07.854Z,20.64
2018-10-06T02:27:07.883Z,20.60
2018-10-06T02:28:07.918Z,20.60
2018-10-06T02:29:07.961Z,20.58
2018-10-06T02:30:08.277Z,20.59
2018-10-06T02:31:08.026Z,20.60
2018-10-06T02:32:08.319Z,20.60
2018-10-06T02:33:08.097Z,20.60
2018-10-06T02:34:08.143Z,20.58
2018-10-06T02:35:08.168Z,20.59
2018-10-06T02:36:08.208Z,20.59
2018-10-06T02:37:08.239Z,20.58
2018-10-06T02:38:08.526Z,20.58
2018-10-06T02:39:08.310Z,20.64
2018-10-06T02:40:08.353Z,20.56
2018-10-06T02:41:08.388Z,20.59
2018-10-06T02:42:08.668Z,20.60
2018-10-06T02:43:08.461Z,20.60
2018-10-06T02:44:08.739Z,20.58
2018-10-06T02:45:08.523Z,20.63
2018-10-06T02:46:08.560Z,20.53
2018-10-06T02:47:08.602Z,20.56
2018-10-06T02:48:08.881Z,20.58
2018-10-06T02:49:08.917Z,20.63
2018-10-06T02:50:08.703Z,20.52
2018-10-06T02:51:08.745Z,20.58
2018-10-06T02:52:08.772Z,20.58
2018-10-06T02:53:08.815Z,20.60
2018-10-06T02:54:09.102Z,20.56
2018-10-06T02:55:08.880Z,20.58
2018-10-06T02:56:08.916Z,20.58
2018-10-06T02:57:09.202Z,20.64
2018-10-06T02:58:08.991Z,20.59
2018-10-06T02:59:09.022Z,20.59
2018-10-06T03:00:09.058Z,20.56
2018-10-06T03:01:09.351Z,20.53
2018-10-06T03:02:09.136Z,20.59
2018-10-06T03:03:09.172Z,20.59
2018-10-06T03:04:09.207Z,20.59
2018-10-06T03:05:09.486Z,20.56
2018-10-06T03:06:09.522Z,20.52
2018-10-06T03:07:09.316Z,20.56
2018-10-06T03:08:09.341Z,20.59
2018-10-06T03:09:09.385Z,20.58
2018-10-06T03:10:09.671Z,20.58
2018-10-06T03:11:09.456Z,20.56
2018-10-06T03:12:09.485Z,20.59
2018-10-06T03:13:09.522Z,20.59
2018-10-06T03:14:09.555Z,20.60
2018-10-06T03:15:09.599Z,20.58
2018-10-06T03:16:09.627Z,20.53
2018-10-06T03:17:09.663Z,20.58
2018-10-06T03:18:09.948Z,20.60
2018-10-06T03:19:09.734Z,20.56
2018-10-06T03:20:09.769Z,20.58
2018-10-06T03:21:09.805Z,20.58
2018-10-06T03:22:09.841Z,20.58
2018-10-06T03:23:10.129Z,20.59
2018-10-06T03:24:10.161Z,20.55
2018-10-06T03:25:09.948Z,20.59
2018-10-06T03:26:09.983Z,20.60
2018-10-06T03:27:10.029Z,20.56
2018-10-06T03:28:10.064Z,20.56
2018-10-06T03:29:10.091Z,20.59
2018-10-06T03:30:10.126Z,20.59
2018-10-06T03:31:10.163Z,20.59
2018-10-06T03:32:10.203Z,20.59
2018-10-06T03:33:10.232Z,20.55
2018-10-06T03:34:10.274Z,20.56
2018-10-06T03:35:10.311Z,20.64
2018-10-06T03:36:10.346Z,20.56
2018-10-06T03:37:10.383Z,20.59
2018-10-06T03:38:10.417Z,20.58
2018-10-06T03:39:10.455Z,20.52
2018-10-06T03:40:10.731Z,20.59
2018-10-06T03:41:10.526Z,20.55
2018-10-06T03:42:10.803Z,20.59
2018-10-06T03:43:10.587Z,20.63
2018-10-06T03:44:10.623Z,20.55
2018-10-06T03:45:10.659Z,20.59
2018-10-06T03:46:10.706Z,20.55
2018-10-06T03:47:10.732Z,20.60
2018-10-06T03:48:10.767Z,20.59
2018-10-06T03:49:11.059Z,20.59
2018-10-06T03:50:11.096Z,20.60
2018-10-06T03:51:10.880Z,20.56
2018-10-06T03:52:10.915Z,20.59
2018-10-06T03:53:10.950Z,20.59
2018-10-06T03:54:11.351Z,20.56
2018-10-06T03:55:11.025Z,20.56
2018-10-06T03:56:11.057Z,20.58
2018-10-06T03:57:11.086Z,20.58
2018-10-06T03:58:11.123Z,20.59
2018-10-06T03:59:11.165Z,20.58
2018-10-06T04:00:11.443Z,20.59
2018-10-06T04:01:11.229Z,20.59
2018-10-06T04:02:11.268Z,20.64
2018-10-06T04:03:11.299Z,20.59
2018-10-06T04:04:11.592Z,20.63
2018-10-06T04:05:11.371Z,20.53
2018-10-06T04:06:11.407Z,20.58
2018-10-06T04:07:11.443Z,20.53
2018-10-06T04:08:11.483Z,20.59
2018-10-06T04:09:11.521Z,20.56
2018-10-06T04:10:11.556Z,20.56
2018-10-06T04:11:11.592Z,20.58
2018-10-06T04:12:11.628Z,20.59
2018-10-06T04:13:11.907Z,20.56
2018-10-06T04:14:11.690Z,20.63
2018-10-06T04:15:11.729Z,20.56
2018-10-06T04:16:12.019Z,20.53
2018-10-06T04:17:11.805Z,20.63
2018-10-06T04:18:12.092Z,20.56
2018-10-06T04:19:11.876Z,20.63
2018-10-06T04:20:11.912Z,20.53
2018-10-06T04:21:11.941Z,20.59
2018-10-06T04:22:11.976Z,20.64
2018-10-06T04:23:12.020Z,20.53
2018-10-06T04:24:12.047Z,20.63
2018-10-06T04:25:12.083Z,20.56
2018-10-06T04:26:12.118Z,20.58
2018-10-06T04:27:12.404Z,20.59
2018-10-06T04:28:12.240Z,20.59
2018-10-06T04:29:12.232Z,20.60
2018-10-06T04:30:12.268Z,20.56
2018-10-06T04:31:12.297Z,20.63
2018-10-06T04:32:12.339Z,20.58
2018-10-06T04:33:12.367Z,20.58
2018-10-06T04:34:12.405Z,20.58
2018-10-06T04:35:12.439Z,20.59
2018-10-06T04:36:12.481Z,20.59
2018-10-06T04:37:12.510Z,20.58
2018-10-06T04:38:12.547Z,20.58
2018-10-06T04:39:12.589Z,20.58
2018-10-06T04:40:12.617Z,20.56
2018-10-06T04:41:12.653Z,20.56
2018-10-06T04:42:12.696Z,20.55
2018-10-06T04:43:12.725Z,20.56
2018-10-06T04:44:12.760Z,20.58
2018-10-06T04:45:12.799Z,20.60
2018-10-06T04:46:12.833Z,20.56
2018-10-06T04:47:12.866Z,20.55
2018-10-06T04:48:12.900Z,20.66
2018-10-06T04:49:12.945Z,20.63
2018-10-06T04:50:12.980Z,20.59
2018-10-06T04:51:13.016Z,20.58
2018-10-06T04:52:13.301Z,20.63
2018-10-06T04:53:13.192Z,20.60
2018-10-06T04:54:13.120Z,20.63
2018-10-06T04:55:13.162Z,20.63
2018-10-06T04:56:13.436Z,20.66
2018-10-06T04:57:13.223Z,20.64
2018-10-06T04:58:13.258Z,20.55
2018-10-06T04:59:13.307Z,20.63
2018-10-06T05:00:13.336Z,20.59
2018-10-06T05:01:13.616Z,20.58
2018-10-06T05:02:13.400Z,20.60
2018-10-06T05:03:13.726Z,20.59
2018-10-06T05:04:13.472Z,20.70
2018-10-06T05:05:13.514Z,20.58
2018-10-06T05:06:13.550Z,20.55
2018-10-06T05:07:13.587Z,20.59
2018-10-06T05:08:13.614Z,20.56
2018-10-06T05:09:13.649Z,20.56
2018-10-06T05:10:13.696Z,20.55
2018-10-06T05:11:13.972Z,20.59
2018-10-06T05:12:13.764Z,20.55
2018-10-06T05:13:13.792Z,20.59
2018-10-06T05:14:13.834Z,20.63
2018-10-06T05:15:13.870Z,20.56
2018-10-06T05:16:13.899Z,20.55
2018-10-06T05:17:14.184Z,20.58
2018-10-06T05:18:14.221Z,20.63
2018-10-06T05:19:14.012Z,20.60
2018-10-06T05:20:14.048Z,20.56
2018-10-06T05:21:14.083Z,20.59
2018-10-06T05:22:14.371Z,20.58
2018-10-06T05:23:14.157Z,20.53
2018-10-06T05:24:14.184Z,20.63
2018-10-06T05:25:14.473Z,20.53
2018-10-06T05:26:14.255Z,20.55
2018-10-06T05:27:14.307Z,20.58
2018-10-06T05:28:14.332Z,20.55
2018-10-06T05:29:14.372Z,20.64
2018-10-06T05:30:14.397Z,20.59
2018-10-06T05:31:14.440Z,20.58
2018-10-06T05:32:14.718Z,20.58
2018-10-06T05:33:14.504Z,20.53
2018-10-06T05:34:14.631Z,20.59
2018-10-06T05:35:14.576Z,20.63
2018-10-06T05:36:14.614Z,20.63
2018-10-06T05:37:14.659Z,20.60
2018-10-06T05:38:14.681Z,20.66
2018-10-06T05:39:14.717Z,20.58
2018-10-06T05:40:14.752Z,20.53
2018-10-06T05:41:14.839Z,20.63
2018-10-06T05:42:14.825Z,20.63
2018-10-06T05:43:14.861Z,20.55
2018-10-06T05:44:15.153Z,20.59
2018-10-06T05:45:14.930Z,20.56
2018-10-06T05:46:14.997Z,20.67
2018-10-06T05:47:15.011Z,20.67
2018-10-06T05:48:15.044Z,20.59
2018-10-06T05:49:15.083Z,20.58
2018-10-06T05:50:15.116Z,20.64
2018-10-06T05:51:15.396Z,20.68
2018-10-06T05:52:15.180Z,20.63
2018-10-06T05:53:15.216Z,20.68
2018-10-06T05:54:15.260Z,20.67
2018-10-06T05:55:15.295Z,20.66
2018-10-06T05:56:15.323Z,20.63
2018-10-06T05:57:15.358Z,20.74
2018-10-06T05:58:15.400Z,20.74
2018-10-06T05:59:15.492Z,20.70
2018-10-06T06:00:15.465Z,20.74
2018-10-06T06:01:15.509Z,20.73
2018-10-06T06:02:15.544Z,20.73
2018-10-06T06:03:15.579Z,20.74
2018-10-06T06:04:15.715Z,20.67
2018-10-06T06:05:15.650Z,20.68
2018-10-06T06:06:15.686Z,20.66
2018-10-06T06:07:15.966Z,20.73
2018-10-06T06:08:15.750Z,20.73
2018-10-06T06:09:15.822Z,20.80
2018-10-06T06:10:16.077Z,20.70
2018-10-06T06:11:15.865Z,20.74
2018-10-06T06:12:15.899Z,20.78
2018-10-06T06:13:15.929Z,20.71
2018-10-06T06:14:15.971Z,20.67
2018-10-06T06:15:16.000Z,20.67
2018-10-06T06:16:16.294Z,20.70
2018-10-06T06:17:16.321Z,20.70
2018-10-06T06:18:16.113Z,20.74
2018-10-06T06:19:16.151Z,20.71
2018-10-06T06:20:16.177Z,20.71
2018-10-06T06:21:16.215Z,20.73
2018-10-06T06:22:16.256Z,20.71
2018-10-06T06:23:16.292Z,20.71
2018-10-06T06:24:16.320Z,20.71
2018-10-06T06:25:16.367Z,20.70
2018-10-06T06:26:16.391Z,20.67
2018-10-06T06:27:16.427Z,20.75
2018-10-06T06:28:16.471Z,20.70
2018-10-06T06:29:16.505Z,20.73
2018-10-06T06:30:16.543Z,20.73
2018-10-06T06:31:16.892Z,20.64
2018-10-06T06:32:16.653Z,20.74
2018-10-06T06:33:16.647Z,20.70
2018-10-06T06:34:16.676Z,20.55
2018-10-06T06:35:16.717Z,20.68
2018-10-06T06:36:16.746Z,20.70
2018-10-06T06:37:17.043Z,20.66
2018-10-06T06:38:16.858Z,20.66
2018-10-06T06:39:16.862Z,20.60
2018-10-06T06:40:16.890Z,20.63
2018-10-06T06:41:16.934Z,20.59
2018-10-06T06:42:16.964Z,20.67
2018-10-06T06:43:16.997Z,20.58
2018-10-06T06:44:17.404Z,20.67
2018-10-06T06:45:17.081Z,20.66
2018-10-06T06:46:17.111Z,20.71
2018-10-06T06:47:17.140Z,20.63
2018-10-06T06:48:17.175Z,20.66
2018-10-06T06:49:17.211Z,20.67
2018-10-06T06:50:17.256Z,20.60
2018-10-06T06:51:17.288Z,20.63
2018-10-06T06:52:17.569Z,20.67
2018-10-06T06:53:17.360Z,20.63
2018-10-06T06:54:17.640Z,20.67
2018-10-06T06:55:17.425Z,20.67
2018-10-06T06:56:17.467Z,20.67
2018-10-06T06:57:17.502Z,20.67
2018-10-06T06:58:17.538Z,20.63
2018-10-06T06:59:17.817Z,20.66
2018-10-06T07:00:17.609Z,20.64
2018-10-06T07:01:17.644Z,20.63
2018-10-06T07:02:17.674Z,20.67
2018-10-06T07:03:17.712Z,20.58
2018-10-06T07:04:17.751Z,20.66
2018-10-06T07:05:17.779Z,20.60
2018-10-06T07:06:17.816Z,20.60
2018-10-06T07:07:17.863Z,20.64
2018-10-06T07:08:17.886Z,20.63
2018-10-06T07:09:17.923Z,20.58
2018-10-06T07:10:17.959Z,20.59
2018-10-06T07:11:18.245Z,20.58
2018-10-06T07:12:18.039Z,20.66
2018-10-06T07:13:18.065Z,20.58
2018-10-06T07:14:18.352Z,20.63
2018-10-06T07:15:18.136Z,20.53
2018-10-06T07:16:18.171Z,20.63
2018-10-06T07:17:18.215Z,20.64
2018-10-06T07:18:18.290Z,20.66
2018-10-06T07:19:18.288Z,20.63
2018-10-06T07:20:18.330Z,20.74
2018-10-06T07:21:18.608Z,20.66
2018-10-06T07:22:18.387Z,20.75
2018-10-06T07:23:18.429Z,20.75
2018-10-06T07:24:18.466Z,20.71
2018-10-06T07:25:18.558Z,20.73
2018-10-06T07:26:18.529Z,20.83
2018-10-06T07:27:18.575Z,20.73
2018-10-06T07:28:18.879Z,20.74
2018-10-06T07:29:18.636Z,20.74
2018-10-06T07:30:18.685Z,20.70
2018-10-06T07:31:18.710Z,20.74
2018-10-06T07:32:18.745Z,20.74
2018-10-06T07:33:19.036Z,20.74
2018-10-06T07:34:18.822Z,20.68
2018-10-06T07:35:19.108Z,20.70
2018-10-06T07:36:18.886Z,20.74
2018-10-06T07:37:18.921Z,20.74
2018-10-06T07:38:18.958Z,20.71
2018-10-06T07:39:19.001Z,20.77
2018-10-06T07:40:19.039Z,20.70
2018-10-06T07:41:19.317Z,20.74
2018-10-06T07:42:19.112Z,20.64
2018-10-06T07:43:19.145Z,20.67
2018-10-06T07:44:19.172Z,20.73
2018-10-06T07:45:19.466Z,20.68
2018-10-06T07:46:19.245Z,20.66
2018-10-06T07:47:19.288Z,20.74
2018-10-06T07:48:19.325Z,20.73
2018-10-06T07:49:19.358Z,20.74
2018-10-06T07:50:19.387Z,20.71
2018-10-06T07:51:19.422Z,20.73
2018-10-06T07:52:19.464Z,20.71
2018-10-06T07:53:19.501Z,20.73
2018-10-06T07:54:19.537Z,20.74
2018-10-06T07:55:19.823Z,20.74
2018-10-06T07:56:19.603Z,20.70
2018-10-06T07:57:19.643Z,20.71
2018-10-06T07:58:19.695Z,20.75
2018-10-06T07:59:19.713Z,20.75
2018-10-06T08:00:19.995Z,20.73
2018-10-06T08:01:19.829Z,20.75
2018-10-06T08:02:19.815Z,20.77
2018-10-06T08:03:19.852Z,20.77
2018-10-06T08:04:19.887Z,20.74
2018-10-06T08:05:19.972Z,20.71
2018-10-06T08:06:20.032Z,20.71
2018-10-06T08:07:19.996Z,20.78
2018-10-06T08:08:20.036Z,20.78
2018-10-06T08:09:20.073Z,20.71
2018-10-06T08:10:20.108Z,20.77
2018-10-06T08:11:20.388Z,20.68
2018-10-06T08:12:20.173Z,20.85
2018-10-06T08:13:20.208Z,20.71
2018-10-06T08:14:20.252Z,20.80
2018-10-06T08:15:20.289Z,20.71
2018-10-06T08:16:20.322Z,20.82
2018-10-06T08:17:20.358Z,20.74
2018-10-06T08:18:20.389Z,20.77
2018-10-06T08:19:20.424Z,20.80
2018-10-06T08:20:20.468Z,20.80
2018-10-06T08:21:20.497Z,20.78
2018-10-06T08:22:20.531Z,20.86
2018-10-06T08:23:20.568Z,20.90
2018-10-06T08:24:20.602Z,20.86
2018-10-06T08:25:20.737Z,20.89
2018-10-06T08:26:20.673Z,20.89
2018-10-06T08:27:20.709Z,20.88
2018-10-06T08:28:20.752Z,20.85
2018-10-06T08:29:20.780Z,20.88
2018-10-06T08:30:20.819Z,20.86
2018-10-06T08:31:20.861Z,20.89
2018-10-06T08:32:20.898Z,20.88
2018-10-06T08:33:20.933Z,20.85
2018-10-06T08:34:20.962Z,20.89
2018-10-06T08:35:21.005Z,20.89
2018-10-06T08:36:21.034Z,20.89
2018-10-06T08:37:21.076Z,20.93
2018-10-06T08:38:21.355Z,20.88
2018-10-06T08:39:21.152Z,20.89
2018-10-06T08:40:21.177Z,20.95
2018-10-06T08:41:21.220Z,20.89
2018-10-06T08:42:21.256Z,20.92
2018-10-06T08:43:21.292Z,20.93
2018-10-06T08:44:21.328Z,20.89
2018-10-06T08:45:21.366Z,20.92
2018-10-06T08:46:21.393Z,21.04
2018-10-06T08:47:21.437Z,20.86
2018-10-06T08:48:21.464Z,20.83
2018-10-06T08:49:21.501Z,20.93
2018-10-06T08:50:21.787Z,20.95
2018-10-06T08:51:21.574Z,20.89
2018-10-06T08:52:21.616Z,20.93
2018-10-06T08:53:21.653Z,21.01
2018-10-06T08:54:21.683Z,20.90
2018-10-06T08:55:21.720Z,20.90
2018-10-06T08:56:21.941Z,20.98
2018-10-06T08:57:21.798Z,20.89
2018-10-06T08:58:21.827Z,20.93
2018-10-06T08:59:21.865Z,20.98
2018-10-06T09:00:21.913Z,20.86
2018-10-06T09:01:21.934Z,20.90
2018-10-06T09:02:21.971Z,20.96
2018-10-06T09:03:22.265Z,20.92
2018-10-06T09:04:22.150Z,20.90
2018-10-06T09:05:22.079Z,21.04
2018-10-06T09:06:22.115Z,20.90
2018-10-06T09:07:22.152Z,20.89
2018-10-06T09:08:22.186Z,21.01
2018-10-06T09:09:22.473Z,20.96
2018-10-06T09:10:22.266Z,20.90
2018-10-06T09:11:22.297Z,20.90
2018-10-06T09:12:22.381Z,20.92
2018-10-06T09:13:22.367Z,20.88
2018-10-06T09:14:22.410Z,20.92
2018-10-06T09:15:22.440Z,20.96
2018-10-06T09:16:22.726Z,20.90
2018-10-06T09:17:22.511Z,20.95
2018-10-06T09:18:22.549Z,20.90
2018-10-06T09:19:22.591Z,20.88
2018-10-06T09:21:22.655Z,20.88
2018-10-06T09:22:22.692Z,20.88
2018-10-06T09:23:22.740Z,20.92
2018-10-06T09:24:22.774Z,20.92
2018-10-06T09:25:22.808Z,20.92
